메인 페이지
METAR-TAF:

METAR-TAF

공항 :

부줌부라, 부룬디

위도: 03-19S, 경도: 029-19E, 고도: 782m

현재 날씨관측

예보는 1 시간 36분 전, 08:00시(UTC)에 발표되었습니다.
무풍
온도 26°C
습도 61%
기압 1014 hPa
시정: 9000m
고도 2000ft 상공 구름 조금
고도 10000ft 상공 구름 많음

METAR: HBBA 180800Z 00000KT 9000 FEW020 BKN100 26/18 Q1014 NOSIG

시각: 11:36 (09:36 UTC)

예보

예보는 6 시간 36분 전, 03:00시(UTC)에 발표되었습니다.
예보 대상 시간: 18일 06시부터 19일 12시까지 (UTC)
10kt, 순간 최대 풍속 20kt
시정 10km 이상
고도 3000ft 상공 구름 조금
고도 10000ft 상공 구름 보통
전환 중
18일 15시부터 18일 17시까지 (UTC)
시정 10km 이상
고도 3000ft 상공 구름 조금
고도 10000ft 상공 구름 보통
전환 중
18일 20시부터 18일 22시까지 (UTC)
kt
시정 10km 이상
고도 2800ft 상공 구름 조금
고도 10000ft 상공 구름 많음
전환 중
19일 02시부터 19일 04시까지 (UTC)
3kt
시정 10km 이상
고도 2500ft 상공 구름 조금
고도 10000ft 상공 구름 보통
전환 중
19일 07시부터 19일 09시까지 (UTC)
10kt, 순간 최대 풍속 20kt
시정 10km 이상
고도 2500ft 상공 구름 조금
고도 3000ft 상공 구름 조금, 적란운.
고도 10000ft 상공 구름 많음

TAF: HBBA 180300Z 1806/1912 18010G20KT 9999 FEW030 SCT100 BECMG 1815/1817 VRB03 9999 FEW030 SCT100 BECMG 1820/1822 00000KT 9999 FEW028 BKN100 BECMG 1902/1904 36003KT 9999 FEW025 SCT100 BECMG 1907/1909 18010G20KT 9999 FEW025 FEW030CB BKN100

4,000개 이상의 공항 관측 자료 및 예보 (METAR 및 TAF 보고).

지도상에서 검색 가능한 기상관측소가 노란 점과 빨간 점으로 표시되어 있습니다.

기상관측소 명을 보려면 표시 위로 마우스를 이동하세요.

날씨 관측과 예보를 보려면 클릭하세요.

지도 변경 : 확대하려면 엑스 표시가 있는 녹색 버튼, 축소하려면 빼기 표시가 있는 녹색 버튼, 다음 페이지의 지도를 보려면 녹색 화살표를 클릭하세요.


METAR-TAF: